KROA/ROA METAR and TAF weather

Enter ICAO airport designator
Station Type Date Time Source
KROA METAR 2022/05/24 23:54 UTC NOAA

KROA 242354Z 06006KT 10SM OVC020 17/13 A3024 RMK AO2 SLP237 T01720128 10183 20167 53010


Station Type Date Time Source
KROA Decoded METAR 2022/05/24 23:54 UTC NOAA

ROANOKE REGIONAL AIRPORT, VA, United States (KROA) 37-19N 079-58W 362M
May 24, 2022 - 07:54 PM EDT / 2022.05.24 2354 UTC
Wind: from the ENE (060 degrees) at 7 MPH (6 KT):0
Visibility: 10 mile(s):0
Sky conditions: overcast
Temperature: 63.0 F (17.2 C)
Dew Point: 55.0 F (12.8 C)
Relative Humidity: 75%
Pressure (altimeter): 30.24 in. Hg (1024 hPa)
Pressure tendency: 0.03 inches (1.0 hPa) higher than three hours ago
ob: KROA 242354Z 06006KT 10SM OVC020 17/13 A3024 RMK AO2 SLP237 T01720128 10183 20167 53010
cycle: 0

Station Type Date Time Source
KROA TAF 2022/05/24 18:22 UTC NOAA

TAF KROA 241720Z 2418/2518 03006KT P6SM OVC020
FM242300 05005KT 6SM BR OVC015
FM250500 07003KT 5SM BR OVC006
FM251200 08003KT 3SM BR OVC012
FM251500 09005KT 6SM BR OVC020

Example: see airport list